createdAt,value
2023-09-08T00:02:26.574Z,97916.63
2023-09-08T00:04:53.850Z,97917.56
2023-09-08T00:07:20.727Z,97915.16
2023-09-08T00:09:47.443Z,97917.63
2023-09-08T00:12:14.304Z,97917.06
2023-09-08T00:14:40.933Z,97911.50
2023-09-08T00:17:07.565Z,97912.53
2023-09-08T00:19:34.258Z,97913.16
2023-09-08T00:22:01.695Z,97911.88
2023-09-08T00:24:28.274Z,97910.66
2023-09-08T00:26:54.863Z,97906.00
2023-09-08T00:29:21.470Z,97907.75
2023-09-08T00:31:48.063Z,97900.53
2023-09-08T00:34:14.637Z,97902.97
2023-09-08T00:36:41.254Z,97905.84
2023-09-08T00:39:07.801Z,97898.41
2023-09-08T00:41:34.612Z,97912.03
2023-09-08T00:44:01.215Z,97905.81
2023-09-08T00:46:28.656Z,97902.69
2023-09-08T00:48:56.350Z,97904.88
2023-09-08T00:51:23.335Z,97913.00
2023-09-08T00:53:51.289Z,97905.59
2023-09-08T00:56:18.268Z,97907.97
2023-09-08T00:58:45.080Z,97901.97
2023-09-08T01:01:11.862Z,97907.75
2023-09-08T01:03:38.541Z,97903.56
2023-09-08T01:06:05.928Z,97903.56
2023-09-08T01:08:33.069Z,97905.84
2023-09-08T01:11:00.421Z,97903.81
2023-09-08T01:13:26.982Z,97905.81
2023-09-08T01:15:53.604Z,97906.06
2023-09-08T01:18:20.316Z,97901.72
2023-09-08T01:21:09.743Z,97897.78
2023-09-08T01:24:06.717Z,97902.78
2023-09-08T01:26:37.992Z,97899.81
2023-09-08T01:29:06.495Z,97900.91
2023-09-08T01:31:34.208Z,97900.94
2023-09-08T01:34:06.233Z,97903.97
2023-09-08T01:36:33.041Z,97903.00
2023-09-08T01:38:59.639Z,97900.81
2023-09-08T01:41:26.296Z,97900.53
2023-09-08T01:43:52.837Z,97900.53
2023-09-08T01:46:19.464Z,97903.03
2023-09-08T01:48:46.073Z,97900.28
2023-09-08T01:51:12.691Z,97900.53
2023-09-08T01:53:39.275Z,97903.91
2023-09-08T01:56:06.017Z,97896.66
2023-09-08T01:58:35.118Z,97901.00
2023-09-08T02:01:06.810Z,97906.94
2023-09-08T02:03:34.165Z,97896.75
2023-09-08T02:06:01.052Z,97896.16
2023-09-08T02:08:27.676Z,97892.41
2023-09-08T02:10:54.284Z,97888.19
2023-09-08T02:13:20.898Z,97895.03
2023-09-08T02:15:47.712Z,97893.25
2023-09-08T02:18:15.308Z,97894.38
2023-09-08T02:20:42.051Z,97897.00
2023-09-08T02:23:08.940Z,97897.47
2023-09-08T02:25:35.565Z,97901.16
2023-09-08T02:28:02.477Z,97901.47
2023-09-08T02:30:29.220Z,97901.00
2023-09-08T02:32:56.354Z,97902.28
2023-09-08T02:35:25.751Z,97901.88
2023-09-08T02:37:52.537Z,97899.56
2023-09-08T02:40:20.181Z,97911.78
2023-09-08T02:42:46.937Z,97908.16
2023-09-08T02:45:13.591Z,97906.16
2023-09-08T02:47:40.191Z,97899.56
2023-09-08T02:50:07.987Z,97906.47
2023-09-08T02:52:34.654Z,97903.22
2023-09-08T02:55:01.312Z,97913.44
2023-09-08T02:57:28.299Z,97913.28
2023-09-08T02:59:57.528Z,97906.81
2023-09-08T03:02:26.415Z,97911.28
2023-09-08T03:04:53.447Z,97904.06
2023-09-08T03:07:20.191Z,97908.81
2023-09-08T03:09:46.739Z,97907.38
2023-09-08T03:12:13.422Z,97909.56
2023-09-08T03:14:40.203Z,97913.19
2023-09-08T03:17:06.849Z,97909.09
2023-09-08T03:19:33.451Z,97916.47
2023-09-08T03:22:00.039Z,97908.22
2023-09-08T03:24:26.630Z,97916.16
2023-09-08T03:26:53.286Z,97914.56
2023-09-08T03:29:19.981Z,97908.34
2023-09-08T03:31:46.715Z,97904.44
2023-09-08T03:34:14.479Z,97901.50
2023-09-08T03:36:41.240Z,97907.88
2023-09-08T03:39:10.375Z,97916.72
2023-09-08T03:41:36.986Z,97916.84
2023-09-08T03:44:03.692Z,97923.47
2023-09-08T03:46:30.405Z,97919.69
2023-09-08T03:49:01.690Z,97917.63
2023-09-08T03:51:29.108Z,97924.56
2023-09-08T03:53:55.888Z,97925.88
2023-09-08T03:56:22.705Z,97920.72
2023-09-08T03:58:49.692Z,97923.31
2023-09-08T04:01:16.585Z,97928.63
2023-09-08T04:03:43.264Z,97928.41
2023-09-08T04:06:10.395Z,97924.78
2023-09-08T04:08:36.993Z,97927.16
2023-09-08T04:11:03.594Z,97936.81
2023-09-08T04:13:30.244Z,97932.28
2023-09-08T04:15:56.979Z,97942.31
2023-09-08T04:18:23.761Z,97930.59
2023-09-08T04:20:50.413Z,97946.31
2023-09-08T04:23:16.953Z,97945.59
2023-09-08T04:25:43.527Z,97942.84
2023-09-08T04:28:10.140Z,97952.63
2023-09-08T04:30:37.098Z,97952.63
2023-09-08T04:33:03.984Z,97947.31
2023-09-08T04:35:30.623Z,97952.91
2023-09-08T04:37:57.170Z,97954.72
2023-09-08T04:40:23.733Z,97943.78
2023-09-08T04:42:50.340Z,97944.09
2023-09-08T04:45:17.040Z,97950.31
2023-09-08T04:47:43.683Z,97956.78
2023-09-08T04:50:10.714Z,97957.50
2023-09-08T04:52:37.397Z,97964.69
2023-09-08T04:55:04.209Z,97957.75
2023-09-08T04:57:30.841Z,97966.72
2023-09-08T04:59:57.724Z,97971.81
2023-09-08T05:02:24.395Z,97976.31
2023-09-08T05:04:51.088Z,97970.41
2023-09-08T05:07:19.964Z,97970.63
2023-09-08T05:09:46.549Z,97969.47
2023-09-08T05:12:13.180Z,97974.88
2023-09-08T05:14:39.832Z,97982.13
2023-09-08T05:17:06.409Z,97981.97
2023-09-08T05:19:33.188Z,97982.97
2023-09-08T05:22:00.013Z,97983.25
2023-09-08T05:24:27.936Z,97985.13
2023-09-08T05:26:54.714Z,97994.03
2023-09-08T05:29:21.341Z,97989.09
2023-09-08T05:31:47.926Z,97985.22
2023-09-08T05:34:14.877Z,97987.16
2023-09-08T05:36:43.530Z,97992.94
2023-09-08T05:39:10.297Z,97990.38
2023-09-08T05:41:37.101Z,97989.00
2023-09-08T05:44:03.855Z,97996.88
2023-09-08T05:46:30.517Z,97997.84
2023-09-08T05:48:57.103Z,97996.41
2023-09-08T05:51:23.927Z,97999.56
2023-09-08T05:53:50.801Z,97992.09
2023-09-08T05:56:19.997Z,97999.91
2023-09-08T05:58:47.113Z,98002.56
2023-09-08T06:01:13.787Z,98001.88
2023-09-08T06:03:40.577Z,98003.47
2023-09-08T06:06:07.351Z,98008.88
2023-09-08T06:08:34.302Z,98008.75
2023-09-08T06:11:01.255Z,98004.09
2023-09-08T06:13:27.958Z,98006.44
2023-09-08T06:15:54.579Z,98014.13
2023-09-08T06:18:21.340Z,98008.78
2023-09-08T06:20:48.784Z,98012.72
2023-09-08T06:23:15.828Z,98006.53
2023-09-08T06:25:42.838Z,98008.72
2023-09-08T06:28:09.446Z,98006.56
2023-09-08T06:30:36.046Z,98010.22
2023-09-08T06:33:02.863Z,98008.34
2023-09-08T06:35:31.204Z,98008.47
2023-09-08T06:37:58.880Z,98015.00
2023-09-08T06:40:25.567Z,98010.50
2023-09-08T06:42:52.188Z,98008.31
2023-09-08T06:45:19.205Z,98009.31
2023-09-08T06:47:46.212Z,98010.75
2023-09-08T06:50:13.042Z,98004.34
2023-09-08T06:52:39.784Z,98005.50
2023-09-08T06:55:08.021Z,98011.72
2023-09-08T06:57:34.578Z,98009.50
2023-09-08T07:00:01.144Z,98008.50
2023-09-08T07:02:28.444Z,98008.31
2023-09-08T07:04:55.329Z,98015.09
2023-09-08T07:07:22.765Z,98015.94
2023-09-08T07:09:49.554Z,98016.69
2023-09-08T07:12:16.163Z,98020.28
2023-09-08T07:14:42.766Z,98020.09
2023-09-08T07:17:09.413Z,98012.94
2023-09-08T07:19:37.255Z,98019.28
2023-09-08T07:22:04.075Z,98017.31
2023-09-08T07:24:30.633Z,98016.41
2023-09-08T07:26:57.204Z,98012.72
2023-09-08T07:29:23.775Z,98015.63
2023-09-08T07:31:50.466Z,98008.59
2023-09-08T07:34:17.106Z,98009.09
2023-09-08T07:36:43.760Z,98011.81
2023-09-08T07:39:10.339Z,98011.69
2023-09-08T07:41:37.548Z,98011.66
2023-09-08T07:44:04.593Z,98016.38
2023-09-08T07:46:31.339Z,98012.22
2023-09-08T07:49:00.005Z,98014.75
2023-09-08T07:51:27.614Z,98011.41
2023-09-08T07:53:54.571Z,98016.00
2023-09-08T07:56:21.289Z,98014.47
2023-09-08T07:58:47.844Z,98024.78
2023-09-08T08:01:15.354Z,98013.13
2023-09-08T08:03:42.714Z,98014.72
2023-09-08T08:06:09.319Z,98012.56
2023-09-08T08:08:39.525Z,98015.81
2023-09-08T08:11:13.841Z,98013.41
2023-09-08T08:13:40.680Z,98013.66
2023-09-08T08:16:07.536Z,98010.31
2023-09-08T08:18:34.647Z,98016.41
2023-09-08T08:21:04.005Z,98012.44
2023-09-08T08:23:31.886Z,98001.59
2023-09-08T08:26:00.003Z,97997.72
2023-09-08T08:28:26.692Z,97993.03
2023-09-08T08:30:53.485Z,97999.97
2023-09-08T08:33:22.120Z,98000.94
2023-09-08T08:35:52.406Z,97998.50
2023-09-08T08:38:19.218Z,97998.34
2023-09-08T08:40:45.876Z,97995.53
2023-09-08T08:43:12.756Z,97991.69
2023-09-08T08:45:40.523Z,97991.63
2023-09-08T08:48:09.785Z,97985.13
2023-09-08T08:50:39.758Z,97986.88
2023-09-08T08:53:07.548Z,97983.38
2023-09-08T08:55:35.298Z,97984.94
2023-09-08T08:58:07.058Z,97985.34
2023-09-08T09:00:39.895Z,97990.50
2023-09-08T09:03:15.298Z,97984.69
2023-09-08T09:05:46.632Z,97984.19
2023-09-08T09:08:15.963Z,97987.91
2023-09-08T09:10:42.603Z,97988.00
2023-09-08T09:13:09.349Z,97984.00
2023-09-08T09:15:35.984Z,97991.41
2023-09-08T09:18:06.823Z,97983.72
2023-09-08T09:20:33.901Z,97993.75
2023-09-08T09:23:01.047Z,97988.50
2023-09-08T09:25:32.374Z,97980.69
2023-09-08T09:28:01.087Z,97981.50
2023-09-08T09:30:28.770Z,97984.34
2023-09-08T09:33:06.053Z,97977.13
2023-09-08T09:35:42.658Z,97978.66
2023-09-08T09:38:09.805Z,97975.34
2023-09-08T09:40:36.740Z,97969.47
2023-09-08T09:43:05.839Z,97970.63
2023-09-08T09:45:35.058Z,97967.31
2023-09-08T09:48:04.295Z,97968.69
2023-09-08T09:50:36.746Z,97967.63
2023-09-08T09:53:13.768Z,97969.53
2023-09-08T09:55:42.661Z,97961.66
2023-09-08T09:58:11.610Z,97966.16
2023-09-08T10:00:41.733Z,97970.81
2023-09-08T10:03:09.530Z,97961.50
2023-09-08T10:05:38.030Z,97960.25
2023-09-08T10:08:05.235Z,97963.28
2023-09-08T10:10:33.785Z,97960.59
2023-09-08T10:13:04.396Z,97964.00
2023-09-08T10:15:32.656Z,97956.91
2023-09-08T10:18:01.379Z,97955.63
2023-09-08T10:20:29.844Z,97948.38
2023-09-08T10:23:05.442Z,97945.66
2023-09-08T10:25:36.503Z,97941.44
2023-09-08T10:28:04.827Z,97944.41
2023-09-08T10:30:32.869Z,97944.03
2023-09-08T10:33:00.655Z,97937.31
2023-09-08T10:35:27.373Z,97945.75
2023-09-08T10:38:24.094Z,97944.31
2023-09-08T10:40:51.386Z,97940.53
2023-09-08T10:43:19.721Z,97932.97
2023-09-08T10:45:47.591Z,97935.84
2023-09-08T10:48:16.661Z,97932.97
2023-09-08T10:50:43.623Z,97928.13
2023-09-08T10:53:15.192Z,97931.22
2023-09-08T10:56:15.851Z,97926.22
2023-09-08T10:58:44.070Z,97924.94
2023-09-08T11:01:17.276Z,97930.69
2023-09-08T11:03:45.451Z,97921.34
2023-09-08T11:06:12.853Z,97921.59
2023-09-08T11:08:42.859Z,97924.06
2023-09-08T11:11:12.612Z,97921.28
2023-09-08T11:13:42.811Z,97920.88
2023-09-08T11:16:09.686Z,97911.78
2023-09-08T11:18:37.577Z,97917.91
2023-09-08T11:21:09.107Z,97913.75
2023-09-08T11:23:36.077Z,97911.13
2023-09-08T11:26:03.108Z,97911.91
2023-09-08T11:28:29.952Z,97906.34
2023-09-08T11:30:56.621Z,97908.41
2023-09-08T11:33:27.389Z,97910.41
2023-09-08T11:35:58.598Z,97915.41
2023-09-08T11:38:27.584Z,97906.56
2023-09-08T11:40:59.368Z,97912.34
2023-09-08T11:43:29.356Z,97906.84
2023-09-08T11:45:57.066Z,97906.44
2023-09-08T11:48:25.809Z,97893.56
2023-09-08T11:50:55.745Z,97898.56
2023-09-08T11:53:23.704Z,97898.69
2023-09-08T11:55:50.565Z,97894.81
2023-09-08T11:58:20.796Z,97895.56
2023-09-08T12:00:50.324Z,97893.28
2023-09-08T12:03:17.652Z,97890.53
2023-09-08T12:05:53.522Z,97891.09
2023-09-08T12:08:20.565Z,97890.53
2023-09-08T12:10:47.232Z,97888.44
2023-09-08T12:13:15.416Z,97886.72
2023-09-08T12:15:44.626Z,97884.91
2023-09-08T12:18:13.654Z,97883.53
2023-09-08T12:20:41.291Z,97890.63
2023-09-08T12:23:22.002Z,97883.81
2023-09-08T12:25:50.363Z,97872.50
2023-09-08T12:28:19.830Z,97876.72
2023-09-08T12:30:46.759Z,97872.59
2023-09-08T12:33:16.137Z,97868.03
2023-09-08T12:35:46.847Z,97866.59
2023-09-08T12:38:14.411Z,97866.13
2023-09-08T12:40:41.319Z,97866.44
2023-09-08T12:43:26.928Z,97862.22
2023-09-08T12:45:58.092Z,97863.78
2023-09-08T12:48:25.476Z,97858.41
2023-09-08T12:50:52.173Z,97855.72
2023-09-08T12:53:21.790Z,97858.47
2023-09-08T12:55:48.780Z,97849.31
2023-09-08T12:58:16.036Z,97853.38
2023-09-08T13:00:43.802Z,97857.16
2023-09-08T13:03:10.821Z,97852.69
2023-09-08T13:05:39.708Z,97847.13
2023-09-08T13:08:06.903Z,97847.84
2023-09-08T13:10:33.465Z,97847.38
2023-09-08T13:13:00.068Z,97840.41
2023-09-08T13:15:26.782Z,97837.59
2023-09-08T13:17:53.334Z,97843.91
2023-09-08T13:20:20.744Z,97842.34
2023-09-08T13:22:47.506Z,97847.22
2023-09-08T13:25:14.341Z,97843.22
2023-09-08T13:27:43.813Z,97838.13
2023-09-08T13:30:12.232Z,97838.13
2023-09-08T13:32:39.676Z,97831.81
2023-09-08T13:35:09.781Z,97833.84
2023-09-08T13:37:38.895Z,97831.16
2023-09-08T13:40:06.131Z,97827.72
2023-09-08T13:42:32.983Z,97825.53
2023-09-08T13:45:00.222Z,97824.38
2023-09-08T13:47:27.659Z,97817.88
2023-09-08T13:49:55.691Z,97822.41
2023-09-08T13:52:27.066Z,97826.72
2023-09-08T13:55:12.689Z,97819.97
2023-09-08T13:57:42.110Z,97823.53
2023-09-08T14:00:15.783Z,97822.66
2023-09-08T14:02:44.342Z,97816.97
2023-09-08T14:05:18.942Z,97813.59
2023-09-08T14:07:55.275Z,97811.34
2023-09-08T14:12:54.032Z,97810.16
2023-09-08T14:15:20.944Z,97808.66
2023-09-08T14:17:47.612Z,97800.91
2023-09-08T14:20:14.385Z,97806.44
2023-09-08T14:22:41.086Z,97802.88
2023-09-08T14:25:08.029Z,97799.38
2023-09-08T14:27:36.137Z,97795.47
2023-09-08T14:30:03.116Z,97794.59
2023-09-08T14:32:29.714Z,97791.66
2023-09-08T14:34:57.238Z,97790.09
2023-09-08T14:37:23.987Z,97790.59
2023-09-08T14:39:50.529Z,97795.41
2023-09-08T14:42:17.267Z,97799.97
2023-09-08T14:44:43.867Z,97789.28
2023-09-08T14:47:10.401Z,97790.75
2023-09-08T14:49:37.003Z,97799.78
2023-09-08T14:52:03.723Z,97797.06
2023-09-08T14:54:30.328Z,97798.47
2023-09-08T14:56:56.980Z,97789.97
2023-09-08T14:59:23.598Z,97791.22
2023-09-08T15:01:52.247Z,97785.59
2023-09-08T15:04:19.137Z,97784.09
2023-09-08T15:06:45.770Z,97788.91
2023-09-08T15:09:12.299Z,97783.38
2023-09-08T15:11:39.192Z,97788.97
2023-09-08T15:14:05.927Z,97780.59
2023-09-08T15:16:32.746Z,97776.91
2023-09-08T15:18:59.462Z,97784.50
2023-09-08T15:21:28.759Z,97783.19
2023-09-08T15:23:55.666Z,97775.88
2023-09-08T15:26:22.449Z,97775.25
2023-09-08T15:28:49.136Z,97780.75
2023-09-08T15:31:19.318Z,97773.66
2023-09-08T15:33:46.748Z,97775.44
2023-09-08T15:36:14.057Z,97770.28
2023-09-08T15:38:41.575Z,97775.69
2023-09-08T15:41:08.279Z,97769.28
2023-09-08T15:43:37.913Z,97766.59
2023-09-08T15:46:05.753Z,97769.97
2023-09-08T15:48:34.645Z,97780.16
2023-09-08T15:51:01.534Z,97767.44
2023-09-08T15:53:28.149Z,97765.06
2023-09-08T15:55:54.899Z,97763.03
2023-09-08T15:58:21.516Z,97767.91
2023-09-08T16:00:48.226Z,97757.91
2023-09-08T16:03:14.982Z,97759.78
2023-09-08T16:05:41.663Z,97758.94
2023-09-08T16:08:08.350Z,97761.06
2023-09-08T16:10:35.502Z,97761.72
2023-09-08T16:13:02.718Z,97759.56
2023-09-08T16:15:29.441Z,97756.06
2023-09-08T16:17:56.145Z,97756.66
2023-09-08T16:20:23.074Z,97756.53
2023-09-08T16:22:50.099Z,97755.72
2023-09-08T16:25:17.321Z,97761.19
2023-09-08T16:27:45.392Z,97763.84
2023-09-08T16:30:12.879Z,97761.69
2023-09-08T16:32:40.907Z,97759.81
2023-09-08T16:35:08.437Z,97762.47
2023-09-08T16:37:36.524Z,97765.78
2023-09-08T16:40:03.942Z,97755.34
2023-09-08T16:42:30.621Z,97760.63
2023-09-08T16:44:57.241Z,97759.56
2023-09-08T16:47:26.620Z,97758.78
2023-09-08T16:49:54.184Z,97757.28
2023-09-08T16:52:23.071Z,97759.84
2023-09-08T16:54:50.519Z,97752.81
2023-09-08T16:57:17.666Z,97759.47
2023-09-08T16:59:44.465Z,97758.03
2023-09-08T17:02:11.075Z,97757.91
2023-09-08T17:04:38.722Z,97761.75
2023-09-08T17:07:05.400Z,97760.88
2023-09-08T17:09:32.169Z,97760.13
2023-09-08T17:11:58.822Z,97769.66
2023-09-08T17:14:25.422Z,97771.28
2023-09-08T17:16:52.012Z,97774.66
2023-09-08T17:19:18.579Z,97784.13
2023-09-08T17:21:46.095Z,97782.47
2023-09-08T17:24:13.716Z,97783.97
2023-09-08T17:26:40.327Z,97778.16
2023-09-08T17:29:08.815Z,97779.44
2023-09-08T17:31:35.632Z,97779.25
2023-09-08T17:34:02.462Z,97788.88
2023-09-08T17:36:29.108Z,97788.00
2023-09-08T17:38:55.790Z,97794.69
2023-09-08T17:41:22.342Z,97788.88
2023-09-08T17:43:48.861Z,97793.41
2023-09-08T17:46:15.869Z,97791.84
2023-09-08T17:48:42.581Z,97790.22
2023-09-08T17:51:09.134Z,97788.66
2023-09-08T17:53:37.505Z,97794.03
2023-09-08T17:56:04.672Z,97797.94
2023-09-08T17:58:31.200Z,97792.38
2023-09-08T18:00:58.022Z,97801.88
2023-09-08T18:03:24.729Z,97800.28
2023-09-08T18:05:51.361Z,97800.03
2023-09-08T18:08:17.976Z,97803.88
2023-09-08T18:10:44.675Z,97810.69
2023-09-08T18:13:11.371Z,97805.59
2023-09-08T18:15:38.016Z,97803.97
2023-09-08T18:18:04.890Z,97807.41
2023-09-08T18:20:34.430Z,97802.38
2023-09-08T18:23:01.097Z,97805.00
2023-09-08T18:25:27.695Z,97801.69
2023-09-08T18:28:01.198Z,97801.41
2023-09-08T18:30:27.781Z,97799.34
2023-09-08T18:32:54.301Z,97805.75
2023-09-08T18:35:20.871Z,97807.88
2023-09-08T18:37:47.430Z,97802.78
2023-09-08T18:40:14.175Z,97803.94
2023-09-08T18:42:40.922Z,97805.00
2023-09-08T18:45:08.733Z,97803.06
2023-09-08T18:47:35.447Z,97808.25
2023-09-08T18:50:02.081Z,97809.03
2023-09-08T18:52:28.654Z,97810.22
2023-09-08T18:54:55.406Z,97812.28
2023-09-08T18:57:21.949Z,97807.16
2023-09-08T18:59:50.251Z,97809.16
2023-09-08T19:02:16.966Z,97812.25
2023-09-08T19:04:44.369Z,97811.44
2023-09-08T19:07:11.065Z,97809.47
2023-09-08T19:09:37.602Z,97813.94
2023-09-08T19:12:05.015Z,97817.88
2023-09-08T19:14:31.625Z,97810.34
2023-09-08T19:16:58.843Z,97818.75
2023-09-08T19:19:27.204Z,97818.59
2023-09-08T19:21:54.022Z,97810.69
2023-09-08T19:24:24.194Z,97817.94
2023-09-08T19:26:50.940Z,97814.97
2023-09-08T19:29:19.846Z,97809.06
2023-09-08T19:31:47.777Z,97812.63
2023-09-08T19:34:14.316Z,97808.53
2023-09-08T19:36:41.478Z,97819.91
2023-09-08T19:39:08.949Z,97807.53
2023-09-08T19:41:36.775Z,97813.50
2023-09-08T19:44:04.782Z,97816.03
2023-09-08T19:46:35.568Z,97809.31
2023-09-08T19:49:02.330Z,97808.03
2023-09-08T19:51:29.190Z,97805.53
2023-09-08T19:53:56.098Z,97812.06
2023-09-08T19:56:22.958Z,97816.16
2023-09-08T19:58:52.132Z,97805.78
2023-09-08T20:01:19.486Z,97810.94
2023-09-08T20:03:46.191Z,97812.91
2023-09-08T20:06:16.474Z,97802.59
2023-09-08T20:08:43.163Z,97804.28
2023-09-08T20:11:10.401Z,97809.84
2023-09-08T20:13:37.342Z,97809.53
2023-09-08T20:16:07.961Z,97807.59
2023-09-08T20:18:35.844Z,97805.22
2023-09-08T20:21:04.107Z,97804.69
2023-09-08T20:23:32.362Z,97801.47
2023-09-08T20:25:59.904Z,97810.19
2023-09-08T20:28:26.675Z,97809.88
2023-09-08T20:31:13.152Z,97802.38
2023-09-08T20:33:40.991Z,97812.34
2023-09-08T20:36:07.619Z,97809.16
2023-09-08T20:38:34.331Z,97810.69
2023-09-08T20:41:01.025Z,97812.97
2023-09-08T20:43:27.544Z,97810.00
2023-09-08T20:46:03.998Z,97819.25
2023-09-08T20:48:32.774Z,97818.94
2023-09-08T20:51:11.042Z,97820.16
2023-09-08T20:53:39.882Z,97821.38
2023-09-08T20:56:08.169Z,97822.84
2023-09-08T20:58:35.004Z,97824.16
2023-09-08T21:01:02.606Z,97825.81
2023-09-08T21:03:29.354Z,97823.97
2023-09-08T21:05:56.035Z,97820.97
2023-09-08T21:08:22.821Z,97825.53
2023-09-08T21:10:49.863Z,97823.66
2023-09-08T21:13:17.113Z,97827.13
2023-09-08T21:15:43.902Z,97822.41
2023-09-08T21:18:10.608Z,97823.06
2023-09-08T21:20:37.475Z,97828.13
2023-09-08T21:23:04.365Z,97818.94
2023-09-08T21:25:35.209Z,97826.69
2023-09-08T21:28:02.224Z,97824.28
2023-09-08T21:30:28.835Z,97827.06
2023-09-08T21:32:55.486Z,97824.03
2023-09-08T21:35:22.213Z,97831.00
2023-09-08T21:37:48.849Z,97821.81
2023-09-08T21:40:17.112Z,97821.88
2023-09-08T21:42:43.738Z,97820.88
2023-09-08T21:45:10.828Z,97815.13
2023-09-08T21:47:37.438Z,97820.88
2023-09-08T21:50:04.523Z,97817.25
2023-09-08T21:52:38.430Z,97823.00
2023-09-08T21:55:06.824Z,97812.78
2023-09-08T21:57:33.488Z,97819.44
2023-09-08T22:00:00.357Z,97814.53
2023-09-08T22:02:27.126Z,97816.94
2023-09-08T22:04:54.169Z,97816.69
2023-09-08T22:07:20.907Z,97823.34
2023-09-08T22:09:47.448Z,97819.50
2023-09-08T22:12:17.193Z,97819.41
2023-09-08T22:14:43.837Z,97824.72
2023-09-08T22:17:10.540Z,97816.41
2023-09-08T22:19:37.136Z,97820.84
2023-09-08T22:22:03.880Z,97819.66
2023-09-08T22:24:30.546Z,97817.25
2023-09-08T22:26:57.335Z,97818.59
2023-09-08T22:29:24.126Z,97819.22
2023-09-08T22:31:50.714Z,97821.84
2023-09-08T22:34:17.396Z,97814.06
2023-09-08T22:36:43.992Z,97811.53
2023-09-08T22:39:12.504Z,97814.66
2023-09-08T22:41:39.763Z,97809.88
2023-09-08T22:44:06.465Z,97808.41
2023-09-08T22:46:33.203Z,97809.97
2023-09-08T22:48:59.785Z,97810.81
2023-09-08T22:51:26.333Z,97816.09
2023-09-08T22:53:53.319Z,97809.75
2023-09-08T22:56:20.194Z,97809.38
2023-09-08T22:58:46.907Z,97816.94
2023-09-08T23:01:13.676Z,97813.91
2023-09-08T23:03:40.729Z,97810.69
2023-09-08T23:06:07.741Z,97820.41
2023-09-08T23:08:34.387Z,97813.06
2023-09-08T23:11:00.931Z,97817.47
2023-09-08T23:13:27.485Z,97806.81
2023-09-08T23:15:54.070Z,97815.56
2023-09-08T23:18:21.317Z,97808.25
2023-09-08T23:20:51.111Z,97813.16
2023-09-08T23:23:17.739Z,97820.47
2023-09-08T23:25:44.397Z,97809.91
2023-09-08T23:28:11.030Z,97812.44
2023-09-08T23:30:37.824Z,97817.13
2023-09-08T23:33:05.572Z,97808.09
2023-09-08T23:35:32.370Z,97813.50
2023-09-08T23:37:59.045Z,97817.69
2023-09-08T23:40:26.079Z,97808.47
2023-09-08T23:42:52.631Z,97813.75
2023-09-08T23:45:19.404Z,97810.47
2023-09-08T23:47:46.192Z,97811.47
2023-09-08T23:50:12.897Z,97806.03
2023-09-08T23:52:39.563Z,97806.28
2023-09-08T23:55:06.713Z,97813.81
2023-09-08T23:57:33.372Z,97815.38
